Terminal Aerodrome Forecast
Issued by NWS

Home | Current Version | Previous Version | Text Only | Print | Product List | Glossary On
Versions: 1 2 3 4 5 6 7 8 9 10 11 12 13 14
000
FTUS43 KPAH 181700
TAFCGI
TAF
KCGI 181720Z 1818/1918 34008G18KT P6SM SCT040
      TEMPO 1818/1821 BKN040
     FM190000 01003KT P6SM SCT040
     FM190600 00000KT 3SM BR BCFG SKC
     FM191400 VRB03KT P6SM SKC=

USA.gov is the U.S. government's official web portal to all federal, state and local government web resources and services.